sensor_id;sensor_type;location;lat;lon;timestamp;P1;durP1;ratioP1;P2;durP2;ratioP2
30096;SDS011;16915;51.466;3.610;2022-10-26T00:01:04;5.75;;;3.78;;
30096;SDS011;16915;51.466;3.610;2022-10-26T00:04:05;6.63;;;3.58;;
30096;SDS011;16915;51.466;3.610;2022-10-26T00:06:53;10.00;;;3.33;;
30096;SDS011;16915;51.466;3.610;2022-10-26T00:10:39;10.55;;;3.45;;
30096;SDS011;16915;51.466;3.610;2022-10-26T00:13:39;10.18;;;3.60;;
30096;SDS011;16915;51.466;3.610;2022-10-26T00:16:49;5.35;;;3.00;;
30096;SDS011;16915;51.466;3.610;2022-10-26T00:26:06;6.72;;;3.08;;
30096;SDS011;16915;51.466;3.610;2022-10-26T00:29:26;17.40;;;4.40;;
30096;SDS011;16915;51.466;3.610;2022-10-26T00:32:20;10.50;;;3.17;;
30096;SDS011;16915;51.466;3.610;2022-10-26T00:39:09;8.98;;;2.97;;
30096;SDS011;16915;51.466;3.610;2022-10-26T00:42:47;8.98;;;2.97;;
30096;SDS011;16915;51.466;3.610;2022-10-26T00:45:37;6.60;;;2.80;;
30096;SDS011;16915;51.466;3.610;2022-10-26T00:49:10;10.48;;;2.55;;
30096;SDS011;16915;51.466;3.610;2022-10-26T00:52:13;8.07;;;3.03;;
30096;SDS011;16915;51.466;3.610;2022-10-26T00:54:59;5.38;;;2.72;;
30096;SDS011;16915;51.466;3.610;2022-10-26T01:00:29;10.43;;;2.60;;
30096;SDS011;16915;51.466;3.610;2022-10-26T01:03:16;5.88;;;2.60;;
30096;SDS011;16915;51.466;3.610;2022-10-26T01:06:00;8.90;;;3.25;;
30096;SDS011;16915;51.466;3.610;2022-10-26T01:12:41;5.90;;;2.90;;
30096;SDS011;16915;51.466;3.610;2022-10-26T01:26:59;7.15;;;2.67;;
30096;SDS011;16915;51.466;3.610;2022-10-26T01:37:05;6.75;;;2.75;;
30096;SDS011;16915;51.466;3.610;2022-10-26T01:40:42;5.72;;;3.22;;
30096;SDS011;16915;51.466;3.610;2022-10-26T01:50:25;9.20;;;3.00;;
30096;SDS011;16915;51.466;3.610;2022-10-26T01:53:17;11.45;;;3.15;;
30096;SDS011;16915;51.466;3.610;2022-10-26T01:56:43;5.55;;;3.40;;
30096;SDS011;16915;51.466;3.610;2022-10-26T02:20:58;6.13;;;2.90;;
30096;SDS011;16915;51.466;3.610;2022-10-26T02:24:05;8.02;;;3.00;;
30096;SDS011;16915;51.466;3.610;2022-10-26T02:27:44;10.73;;;2.78;;
30096;SDS011;16915;51.466;3.610;2022-10-26T02:35:03;6.05;;;2.88;;
30096;SDS011;16915;51.466;3.610;2022-10-26T02:38:14;10.60;;;3.25;;
30096;SDS011;16915;51.466;3.610;2022-10-26T02:45:23;6.60;;;2.60;;
30096;SDS011;16915;51.466;3.610;2022-10-26T02:48:27;11.43;;;2.97;;
30096;SDS011;16915;51.466;3.610;2022-10-26T02:51:53;8.73;;;2.53;;
30096;SDS011;16915;51.466;3.610;2022-10-26T03:05:11;3.92;;;1.80;;
30096;SDS011;16915;51.466;3.610;2022-10-26T03:07:47;6.05;;;1.92;;
30096;SDS011;16915;51.466;3.610;2022-10-26T03:10:17;5.07;;;1.70;;
30096;SDS011;16915;51.466;3.610;2022-10-26T03:13:21;5.13;;;1.65;;
30096;SDS011;16915;51.466;3.610;2022-10-26T03:18:56;4.03;;;1.92;;
30096;SDS011;16915;51.466;3.610;2022-10-26T03:21:22;4.65;;;1.83;;
30096;SDS011;16915;51.466;3.610;2022-10-26T03:23:49;4.82;;;1.75;;
30096;SDS011;16915;51.466;3.610;2022-10-26T03:26:15;7.82;;;2.03;;
30096;SDS011;16915;51.466;3.610;2022-10-26T03:28:42;14.93;;;1.90;;
30096;SDS011;16915;51.466;3.610;2022-10-26T03:31:08;4.90;;;1.88;;
30096;SDS011;16915;51.466;3.610;2022-10-26T03:33:33;5.40;;;1.92;;
30096;SDS011;16915;51.466;3.610;2022-10-26T03:35:59;2.90;;;1.60;;
30096;SDS011;16915;51.466;3.610;2022-10-26T03:38:24;2.70;;;1.88;;
30096;SDS011;16915;51.466;3.610;2022-10-26T03:40:51;7.38;;;2.05;;
30096;SDS011;16915;51.466;3.610;2022-10-26T03:43:22;11.20;;;2.00;;
30096;SDS011;16915;51.466;3.610;2022-10-26T03:45:51;2.95;;;1.77;;
30096;SDS011;16915;51.466;3.610;2022-10-26T03:48:16;6.07;;;2.60;;
30096;SDS011;16915;51.466;3.610;2022-10-26T03:50:42;10.60;;;2.05;;
30096;SDS011;16915;51.466;3.610;2022-10-26T03:53:08;6.15;;;2.13;;
30096;SDS011;16915;51.466;3.610;2022-10-26T03:55:33;8.73;;;2.75;;
30096;SDS011;16915;51.466;3.610;2022-10-26T03:57:59;8.00;;;2.10;;
30096;SDS011;16915;51.466;3.610;2022-10-26T04:00:25;9.85;;;2.58;;
30096;SDS011;16915;51.466;3.610;2022-10-26T04:02:54;5.43;;;2.40;;
30096;SDS011;16915;51.466;3.610;2022-10-26T04:05:21;7.28;;;2.17;;
30096;SDS011;16915;51.466;3.610;2022-10-26T04:07:56;7.63;;;2.22;;
30096;SDS011;16915;51.466;3.610;2022-10-26T04:10:30;7.70;;;2.15;;
30096;SDS011;16915;51.466;3.610;2022-10-26T04:12:56;5.88;;;2.55;;
30096;SDS011;16915;51.466;3.610;2022-10-26T04:15:27;5.55;;;2.63;;
30096;SDS011;16915;51.466;3.610;2022-10-26T04:17:54;7.15;;;2.58;;
30096;SDS011;16915;51.466;3.610;2022-10-26T04:20:24;8.00;;;2.33;;
30096;SDS011;16915;51.466;3.610;2022-10-26T04:23:00;6.40;;;2.50;;
30096;SDS011;16915;51.466;3.610;2022-10-26T04:25:29;6.30;;;2.30;;
30096;SDS011;16915;51.466;3.610;2022-10-26T04:27:56;6.05;;;3.00;;
30096;SDS011;16915;51.466;3.610;2022-10-26T04:30:22;10.05;;;2.70;;
30096;SDS011;16915;51.466;3.610;2022-10-26T04:32:48;11.07;;;3.10;;
30096;SDS011;16915;51.466;3.610;2022-10-26T04:35:13;7.10;;;2.55;;
30096;SDS011;16915;51.466;3.610;2022-10-26T04:37:39;5.88;;;2.58;;
30096;SDS011;16915;51.466;3.610;2022-10-26T04:40:05;8.35;;;2.60;;
30096;SDS011;16915;51.466;3.610;2022-10-26T04:42:46;5.72;;;2.83;;
30096;SDS011;16915;51.466;3.610;2022-10-26T04:49:15;8.00;;;2.50;;
30096;SDS011;16915;51.466;3.610;2022-10-26T04:51:53;8.07;;;2.85;;
30096;SDS011;16915;51.466;3.610;2022-10-26T04:54:21;6.40;;;2.78;;
30096;SDS011;16915;51.466;3.610;2022-10-26T04:56:49;11.75;;;3.47;;
30096;SDS011;16915;51.466;3.610;2022-10-26T04:59:15;7.60;;;3.35;;
30096;SDS011;16915;51.466;3.610;2022-10-26T05:01:59;5.35;;;2.92;;
30096;SDS011;16915;51.466;3.610;2022-10-26T05:04:44;8.02;;;3.28;;
30096;SDS011;16915;51.466;3.610;2022-10-26T05:07:11;6.25;;;3.15;;
30096;SDS011;16915;51.466;3.610;2022-10-26T05:09:36;12.25;;;3.10;;
30096;SDS011;16915;51.466;3.610;2022-10-26T05:12:07;5.70;;;3.10;;
30096;SDS011;16915;51.466;3.610;2022-10-26T05:14:46;8.30;;;3.35;;
30096;SDS011;16915;51.466;3.610;2022-10-26T05:17:16;5.78;;;3.10;;
30096;SDS011;16915;51.466;3.610;2022-10-26T05:20:09;7.18;;;3.30;;
30096;SDS011;16915;51.466;3.610;2022-10-26T05:22:38;6.45;;;2.80;;
30096;SDS011;16915;51.466;3.610;2022-10-26T05:25:20;5.93;;;3.13;;
30096;SDS011;16915;51.466;3.610;2022-10-26T05:28:45;4.95;;;2.65;;
30096;SDS011;16915;51.466;3.610;2022-10-26T05:31:48;6.90;;;2.78;;
30096;SDS011;16915;51.466;3.610;2022-10-26T05:35:07;6.10;;;2.75;;
30096;SDS011;16915;51.466;3.610;2022-10-26T05:38:50;6.25;;;2.13;;
30096;SDS011;16915;51.466;3.610;2022-10-26T05:49:09;4.15;;;1.83;;
30096;SDS011;16915;51.466;3.610;2022-10-26T05:52:25;4.57;;;1.73;;
30096;SDS011;16915;51.466;3.610;2022-10-26T05:58:14;6.55;;;1.75;;
30096;SDS011;16915;51.466;3.610;2022-10-26T06:07:09;3.72;;;1.33;;
30096;SDS011;16915;51.466;3.610;2022-10-26T06:10:32;5.53;;;1.90;;
30096;SDS011;16915;51.466;3.610;2022-10-26T06:13:44;3.15;;;1.60;;
30096;SDS011;16915;51.466;3.610;2022-10-26T06:24:10;4.03;;;1.25;;
30096;SDS011;16915;51.466;3.610;2022-10-26T06:31:20;5.63;;;2.00;;
30096;SDS011;16915;51.466;3.610;2022-10-26T06:34:32;6.68;;;1.52;;
30096;SDS011;16915;51.466;3.610;2022-10-26T06:38:03;4.95;;;1.90;;
30096;SDS011;16915;51.466;3.610;2022-10-26T06:41:46;4.93;;;1.35;;
30096;SDS011;16915;51.466;3.610;2022-10-26T06:44:41;2.72;;;1.23;;
30096;SDS011;16915;51.466;3.610;2022-10-26T06:55:14;8.05;;;1.42;;
30096;SDS011;16915;51.466;3.610;2022-10-26T06:58:20;5.95;;;1.50;;
30096;SDS011;16915;51.466;3.610;2022-10-26T07:01:37;5.43;;;1.70;;
30096;SDS011;16915;51.466;3.610;2022-10-26T07:05:07;3.05;;;1.40;;
30096;SDS011;16915;51.466;3.610;2022-10-26T07:08:05;5.78;;;1.23;;
30096;SDS011;16915;51.466;3.610;2022-10-26T07:11:25;2.55;;;1.27;;
30096;SDS011;16915;51.466;3.610;2022-10-26T07:14:28;2.97;;;1.52;;
30096;SDS011;16915;51.466;3.610;2022-10-26T07:17:24;3.65;;;1.90;;
30096;SDS011;16915;51.466;3.610;2022-10-26T07:20:51;5.95;;;1.50;;
30096;SDS011;16915;51.466;3.610;2022-10-26T07:23:53;4.90;;;1.50;;
30096;SDS011;16915;51.466;3.610;2022-10-26T07:30:43;7.05;;;1.80;;
30096;SDS011;16915;51.466;3.610;2022-10-26T07:34:08;5.90;;;1.98;;
30096;SDS011;16915;51.466;3.610;2022-10-26T07:37:15;7.45;;;2.33;;
30096;SDS011;16915;51.466;3.610;2022-10-26T07:39:44;14.43;;;2.15;;
30096;SDS011;16915;51.466;3.610;2022-10-26T07:42:58;6.38;;;2.13;;
30096;SDS011;16915;51.466;3.610;2022-10-26T07:46:07;3.53;;;1.75;;
30096;SDS011;16915;51.466;3.610;2022-10-26T07:48:37;3.67;;;1.65;;
30096;SDS011;16915;51.466;3.610;2022-10-26T07:51:11;5.93;;;2.25;;
30096;SDS011;16915;51.466;3.610;2022-10-26T07:54:20;8.40;;;2.10;;
30096;SDS011;16915;51.466;3.610;2022-10-26T07:57:15;4.47;;;1.77;;
30096;SDS011;16915;51.466;3.610;2022-10-26T07:59:45;5.32;;;2.20;;
30096;SDS011;16915;51.466;3.610;2022-10-26T08:03:00;6.82;;;2.05;;
30096;SDS011;16915;51.466;3.610;2022-10-26T08:06:25;2.97;;;2.00;;
30096;SDS011;16915;51.466;3.610;2022-10-26T08:09:28;6.80;;;2.10;;
30096;SDS011;16915;51.466;3.610;2022-10-26T08:15:02;4.45;;;1.60;;
30096;SDS011;16915;51.466;3.610;2022-10-26T08:18:02;6.15;;;2.10;;
30096;SDS011;16915;51.466;3.610;2022-10-26T08:21:00;4.80;;;1.80;;
30096;SDS011;16915;51.466;3.610;2022-10-26T08:23:43;5.88;;;2.25;;
30096;SDS011;16915;51.466;3.610;2022-10-26T08:26:50;5.38;;;2.10;;
30096;SDS011;16915;51.466;3.610;2022-10-26T08:29:16;6.20;;;2.25;;
30096;SDS011;16915;51.466;3.610;2022-10-26T08:31:41;5.53;;;2.20;;
30096;SDS011;16915;51.466;3.610;2022-10-26T08:34:07;9.50;;;1.95;;
30096;SDS011;16915;51.466;3.610;2022-10-26T08:36:33;6.90;;;2.10;;
30096;SDS011;16915;51.466;3.610;2022-10-26T08:38:59;4.90;;;2.53;;
30096;SDS011;16915;51.466;3.610;2022-10-26T08:41:37;7.70;;;2.00;;
30096;SDS011;16915;51.466;3.610;2022-10-26T08:46:36;3.58;;;1.73;;
30096;SDS011;16915;51.466;3.610;2022-10-26T08:51:49;4.80;;;1.92;;
30096;SDS011;16915;51.466;3.610;2022-10-26T08:54:33;4.20;;;1.77;;
30096;SDS011;16915;51.466;3.610;2022-10-26T08:57:38;2.50;;;1.40;;
30096;SDS011;16915;51.466;3.610;2022-10-26T09:00:04;4.30;;;1.60;;
30096;SDS011;16915;51.466;3.610;2022-10-26T09:02:31;4.20;;;1.98;;
30096;SDS011;16915;51.466;3.610;2022-10-26T09:04:57;5.22;;;2.08;;
30096;SDS011;16915;51.466;3.610;2022-10-26T09:07:44;4.55;;;2.15;;
30096;SDS011;16915;51.466;3.610;2022-10-26T09:19:00;5.78;;;1.67;;
30096;SDS011;16915;51.466;3.610;2022-10-26T09:22:08;4.05;;;1.80;;
30096;SDS011;16915;51.466;3.610;2022-10-26T09:24:49;8.43;;;2.08;;
30096;SDS011;16915;51.466;3.610;2022-10-26T09:27:22;6.95;;;2.00;;
30096;SDS011;16915;51.466;3.610;2022-10-26T09:29:58;9.07;;;1.88;;
30096;SDS011;16915;51.466;3.610;2022-10-26T09:32:30;4.07;;;1.50;;
30096;SDS011;16915;51.466;3.610;2022-10-26T09:35:03;2.30;;;1.50;;
30096;SDS011;16915;51.466;3.610;2022-10-26T09:37:38;4.55;;;2.42;;
30096;SDS011;16915;51.466;3.610;2022-10-26T09:40:13;2.65;;;1.40;;
30096;SDS011;16915;51.466;3.610;2022-10-26T09:42:50;6.40;;;2.08;;
30096;SDS011;16915;51.466;3.610;2022-10-26T09:45:31;4.68;;;1.58;;
30096;SDS011;16915;51.466;3.610;2022-10-26T09:48:44;5.47;;;1.60;;
30096;SDS011;16915;51.466;3.610;2022-10-26T09:50:55;4.95;;;1.88;;
30096;SDS011;16915;51.466;3.610;2022-10-26T09:53:23;7.13;;;1.30;;
30096;SDS011;16915;51.466;3.610;2022-10-26T09:55:49;5.90;;;2.03;;
30096;SDS011;16915;51.466;3.610;2022-10-26T09:59:12;7.47;;;2.30;;
30096;SDS011;16915;51.466;3.610;2022-10-26T10:01:30;5.35;;;1.70;;
30096;SDS011;16915;51.466;3.610;2022-10-26T10:04:08;6.63;;;1.65;;
30096;SDS011;16915;51.466;3.610;2022-10-26T10:06:37;4.53;;;1.38;;
30096;SDS011;16915;51.466;3.610;2022-10-26T10:09:10;2.75;;;1.30;;
30096;SDS011;16915;51.466;3.610;2022-10-26T10:11:38;3.08;;;1.20;;
30096;SDS011;16915;51.466;3.610;2022-10-26T10:14:12;3.88;;;1.50;;
30096;SDS011;16915;51.466;3.610;2022-10-26T10:16:47;5.28;;;1.33;;
30096;SDS011;16915;51.466;3.610;2022-10-26T10:19:28;3.65;;;1.38;;
30096;SDS011;16915;51.466;3.610;2022-10-26T10:22:08;5.55;;;1.60;;
30096;SDS011;16915;51.466;3.610;2022-10-26T10:24:40;4.00;;;1.08;;
30096;SDS011;16915;51.466;3.610;2022-10-26T10:29:46;4.30;;;1.10;;
30096;SDS011;16915;51.466;3.610;2022-10-26T10:32:23;4.03;;;1.27;;
30096;SDS011;16915;51.466;3.610;2022-10-26T10:34:56;7.65;;;1.20;;
30096;SDS011;16915;51.466;3.610;2022-10-26T10:40:25;4.60;;;1.33;;
30096;SDS011;16915;51.466;3.610;2022-10-26T10:42:52;1.50;;;1.02;;
30096;SDS011;16915;51.466;3.610;2022-10-26T10:45:30;6.20;;;1.10;;
30096;SDS011;16915;51.466;3.610;2022-10-26T10:48:15;6.43;;;1.50;;
30096;SDS011;16915;51.466;3.610;2022-10-26T10:50:53;3.85;;;1.30;;
30096;SDS011;16915;51.466;3.610;2022-10-26T10:53:21;3.85;;;1.15;;
30096;SDS011;16915;51.466;3.610;2022-10-26T11:07:20;5.15;;;0.93;;
30096;SDS011;16915;51.466;3.610;2022-10-26T11:09:48;5.43;;;1.25;;
30096;SDS011;16915;51.466;3.610;2022-10-26T11:12:17;4.93;;;1.02;;
30096;SDS011;16915;51.466;3.610;2022-10-26T11:14:53;2.58;;;0.93;;
30096;SDS011;16915;51.466;3.610;2022-10-26T11:20:31;7.72;;;1.20;;
30096;SDS011;16915;51.466;3.610;2022-10-26T11:23:04;5.55;;;1.20;;
30096;SDS011;16915;51.466;3.610;2022-10-26T11:25:37;4.38;;;1.30;;
30096;SDS011;16915;51.466;3.610;2022-10-26T11:28:16;10.10;;;1.55;;
30096;SDS011;16915;51.466;3.610;2022-10-26T11:30:51;2.58;;;1.20;;
30096;SDS011;16915;51.466;3.610;2022-10-26T11:33:27;6.90;;;1.38;;
30096;SDS011;16915;51.466;3.610;2022-10-26T11:36:05;6.25;;;1.30;;
30096;SDS011;16915;51.466;3.610;2022-10-26T11:38:37;3.20;;;1.15;;
30096;SDS011;16915;51.466;3.610;2022-10-26T11:41:19;6.53;;;1.38;;
30096;SDS011;16915;51.466;3.610;2022-10-26T11:43:56;4.85;;;1.20;;
30096;SDS011;16915;51.466;3.610;2022-10-26T11:52:18;3.60;;;1.08;;
30096;SDS011;16915;51.466;3.610;2022-10-26T11:54:53;4.20;;;1.48;;
30096;SDS011;16915;51.466;3.610;2022-10-26T11:57:24;5.82;;;1.55;;
30096;SDS011;16915;51.466;3.610;2022-10-26T11:59:57;3.25;;;1.45;;
30096;SDS011;16915;51.466;3.610;2022-10-26T12:02:32;4.63;;;1.02;;
30096;SDS011;16915;51.466;3.610;2022-10-26T12:05:07;8.05;;;1.20;;
30096;SDS011;16915;51.466;3.610;2022-10-26T12:07:39;5.22;;;1.30;;
30096;SDS011;16915;51.466;3.610;2022-10-26T12:10:37;12.23;;;1.92;;
30096;SDS011;16915;51.466;3.610;2022-10-26T12:13:13;3.55;;;1.17;;
30096;SDS011;16915;51.466;3.610;2022-10-26T12:21:03;11.45;;;2.42;;
30096;SDS011;16915;51.466;3.610;2022-10-26T12:23:36;5.28;;;1.05;;
30096;SDS011;16915;51.466;3.610;2022-10-26T12:28:47;12.45;;;2.80;;
30096;SDS011;16915;51.466;3.610;2022-10-26T12:34:00;9.07;;;1.00;;
30096;SDS011;16915;51.466;3.610;2022-10-26T12:39:27;9.70;;;1.10;;
30096;SDS011;16915;51.466;3.610;2022-10-26T12:44:38;3.55;;;1.25;;
30096;SDS011;16915;51.466;3.610;2022-10-26T12:47:09;7.43;;;1.67;;
30096;SDS011;16915;51.466;3.610;2022-10-26T13:04:24;3.65;;;1.05;;
30096;SDS011;16915;51.466;3.610;2022-10-26T13:12:24;1.08;;;0.70;;
30096;SDS011;16915;51.466;3.610;2022-10-26T13:14:59;6.32;;;1.00;;
30096;SDS011;16915;51.466;3.610;2022-10-26T13:17:28;4.40;;;0.80;;
30096;SDS011;16915;51.466;3.610;2022-10-26T13:19:57;2.35;;;0.80;;
30096;SDS011;16915;51.466;3.610;2022-10-26T13:22:25;6.50;;;0.90;;
30096;SDS011;16915;51.466;3.610;2022-10-26T13:24:58;4.05;;;0.82;;
30096;SDS011;16915;51.466;3.610;2022-10-26T13:27:44;4.57;;;0.85;;
30096;SDS011;16915;51.466;3.610;2022-10-26T13:32:57;9.32;;;1.10;;
30096;SDS011;16915;51.466;3.610;2022-10-26T13:35:25;7.65;;;0.70;;
30096;SDS011;16915;51.466;3.610;2022-10-26T13:37:53;7.68;;;0.80;;
30096;SDS011;16915;51.466;3.610;2022-10-26T13:40:24;3.53;;;0.80;;
30096;SDS011;16915;51.466;3.610;2022-10-26T13:42:55;4.60;;;0.88;;
30096;SDS011;16915;51.466;3.610;2022-10-26T13:48:18;6.88;;;0.80;;
30096;SDS011;16915;51.466;3.610;2022-10-26T13:51:01;3.28;;;0.70;;
30096;SDS011;16915;51.466;3.610;2022-10-26T13:53:45;5.10;;;0.80;;
30096;SDS011;16915;51.466;3.610;2022-10-26T13:56:29;3.70;;;0.85;;
30096;SDS011;16915;51.466;3.610;2022-10-26T13:58:59;4.68;;;0.90;;
30096;SDS011;16915;51.466;3.610;2022-10-26T14:01:28;6.25;;;0.82;;
30096;SDS011;16915;51.466;3.610;2022-10-26T14:03:54;3.03;;;0.70;;
30096;SDS011;16915;51.466;3.610;2022-10-26T14:06:34;4.15;;;0.80;;
30096;SDS011;16915;51.466;3.610;2022-10-26T14:09:02;6.38;;;0.70;;
30096;SDS011;16915;51.466;3.610;2022-10-26T14:11:42;2.67;;;0.55;;
30096;SDS011;16915;51.466;3.610;2022-10-26T14:16:50;4.10;;;0.70;;
30096;SDS011;16915;51.466;3.610;2022-10-26T14:19:21;3.00;;;0.73;;
30096;SDS011;16915;51.466;3.610;2022-10-26T14:21:59;4.25;;;0.68;;
30096;SDS011;16915;51.466;3.610;2022-10-26T14:24:26;2.00;;;0.70;;
30096;SDS011;16915;51.466;3.610;2022-10-26T14:27:01;2.30;;;0.80;;
30096;SDS011;16915;51.466;3.610;2022-10-26T14:29:30;5.35;;;1.02;;
30096;SDS011;16915;51.466;3.610;2022-10-26T14:31:57;2.75;;;0.68;;
30096;SDS011;16915;51.466;3.610;2022-10-26T14:34:23;2.88;;;0.90;;
30096;SDS011;16915;51.466;3.610;2022-10-26T14:36:49;5.80;;;0.95;;
30096;SDS011;16915;51.466;3.610;2022-10-26T14:42:16;3.15;;;0.68;;
30096;SDS011;16915;51.466;3.610;2022-10-26T14:44:48;6.03;;;0.77;;
30096;SDS011;16915;51.466;3.610;2022-10-26T14:47:35;4.28;;;0.90;;
30096;SDS011;16915;51.466;3.610;2022-10-26T14:50:00;1.58;;;0.50;;
30096;SDS011;16915;51.466;3.610;2022-10-26T14:52:33;7.05;;;1.10;;
30096;SDS011;16915;51.466;3.610;2022-10-26T14:55:10;5.95;;;0.63;;
30096;SDS011;16915;51.466;3.610;2022-10-26T14:57:38;5.38;;;0.95;;
30096;SDS011;16915;51.466;3.610;2022-10-26T15:00:16;4.40;;;0.82;;
30096;SDS011;16915;51.466;3.610;2022-10-26T15:02:50;5.10;;;0.82;;
30096;SDS011;16915;51.466;3.610;2022-10-26T15:05:26;4.22;;;0.70;;
30096;SDS011;16915;51.466;3.610;2022-10-26T15:07:54;4.57;;;0.95;;
30096;SDS011;16915;51.466;3.610;2022-10-26T15:13:46;6.28;;;0.90;;
30096;SDS011;16915;51.466;3.610;2022-10-26T15:15:56;5.05;;;0.73;;
30096;SDS011;16915;51.466;3.610;2022-10-26T15:18:32;4.63;;;1.02;;
30096;SDS011;16915;51.466;3.610;2022-10-26T15:21:00;5.55;;;1.02;;
30096;SDS011;16915;51.466;3.610;2022-10-26T15:23:27;7.65;;;1.10;;
30096;SDS011;16915;51.466;3.610;2022-10-26T15:25:55;5.20;;;0.88;;
30096;SDS011;16915;51.466;3.610;2022-10-26T15:28:37;5.47;;;0.77;;
30096;SDS011;16915;51.466;3.610;2022-10-26T15:36:30;4.55;;;0.93;;
30096;SDS011;16915;51.466;3.610;2022-10-26T15:38:57;2.47;;;0.70;;
30096;SDS011;16915;51.466;3.610;2022-10-26T15:41:35;8.30;;;1.60;;
30096;SDS011;16915;51.466;3.610;2022-10-26T15:44:03;7.55;;;1.10;;
30096;SDS011;16915;51.466;3.610;2022-10-26T15:46:31;4.88;;;0.85;;
30096;SDS011;16915;51.466;3.610;2022-10-26T15:48:59;2.50;;;0.60;;
30096;SDS011;16915;51.466;3.610;2022-10-26T15:51:27;3.67;;;0.85;;
30096;SDS011;16915;51.466;3.610;2022-10-26T15:53:55;7.15;;;0.90;;
30096;SDS011;16915;51.466;3.610;2022-10-26T15:56:22;5.95;;;1.38;;
30096;SDS011;16915;51.466;3.610;2022-10-26T15:58:49;7.43;;;1.25;;
30096;SDS011;16915;51.466;3.610;2022-10-26T16:01:22;4.68;;;1.40;;
30096;SDS011;16915;51.466;3.610;2022-10-26T16:03:50;6.47;;;0.90;;
30096;SDS011;16915;51.466;3.610;2022-10-26T16:06:17;3.40;;;0.52;;
30096;SDS011;16915;51.466;3.610;2022-10-26T16:08:56;3.53;;;0.95;;
30096;SDS011;16915;51.466;3.610;2022-10-26T16:11:23;6.50;;;1.63;;
30096;SDS011;16915;51.466;3.610;2022-10-26T16:13:49;7.43;;;0.80;;
30096;SDS011;16915;51.466;3.610;2022-10-26T16:16:15;5.93;;;1.02;;
30096;SDS011;16915;51.466;3.610;2022-10-26T16:18:54;6.07;;;1.23;;
30096;SDS011;16915;51.466;3.610;2022-10-26T16:21:21;7.38;;;1.20;;
30096;SDS011;16915;51.466;3.610;2022-10-26T16:23:48;5.25;;;1.35;;
30096;SDS011;16915;51.466;3.610;2022-10-26T16:26:19;6.55;;;1.10;;
30096;SDS011;16915;51.466;3.610;2022-10-26T16:28:45;5.15;;;0.90;;
30096;SDS011;16915;51.466;3.610;2022-10-26T16:31:12;4.93;;;1.10;;
30096;SDS011;16915;51.466;3.610;2022-10-26T16:33:38;9.77;;;1.75;;
30096;SDS011;16915;51.466;3.610;2022-10-26T16:36:04;7.22;;;1.20;;
30096;SDS011;16915;51.466;3.610;2022-10-26T16:38:31;4.00;;;1.00;;
30096;SDS011;16915;51.466;3.610;2022-10-26T16:43:26;5.40;;;1.15;;
30096;SDS011;16915;51.466;3.610;2022-10-26T16:45:51;8.25;;;1.10;;
30096;SDS011;16915;51.466;3.610;2022-10-26T16:48:17;7.40;;;1.30;;
30096;SDS011;16915;51.466;3.610;2022-10-26T16:50:43;6.70;;;1.55;;
30096;SDS011;16915;51.466;3.610;2022-10-26T16:53:08;5.63;;;0.88;;
30096;SDS011;16915;51.466;3.610;2022-10-26T16:55:34;6.82;;;1.05;;
30096;SDS011;16915;51.466;3.610;2022-10-26T16:57:59;5.07;;;1.20;;
30096;SDS011;16915;51.466;3.610;2022-10-26T17:00:25;5.65;;;0.90;;
30096;SDS011;16915;51.466;3.610;2022-10-26T17:02:50;7.63;;;1.30;;
30096;SDS011;16915;51.466;3.610;2022-10-26T17:05:16;3.38;;;1.10;;
30096;SDS011;16915;51.466;3.610;2022-10-26T17:07:41;4.05;;;1.10;;
30096;SDS011;16915;51.466;3.610;2022-10-26T17:10:07;5.70;;;1.00;;
30096;SDS011;16915;51.466;3.610;2022-10-26T17:12:33;3.30;;;0.93;;
30096;SDS011;16915;51.466;3.610;2022-10-26T17:14:59;4.97;;;1.92;;
30096;SDS011;16915;51.466;3.610;2022-10-26T17:17:25;5.10;;;1.42;;
30096;SDS011;16915;51.466;3.610;2022-10-26T17:19:51;4.95;;;1.08;;
30096;SDS011;16915;51.466;3.610;2022-10-26T17:22:21;6.78;;;1.20;;
30096;SDS011;16915;51.466;3.610;2022-10-26T17:24:47;5.68;;;1.08;;
30096;SDS011;16915;51.466;3.610;2022-10-26T17:27:13;5.78;;;1.20;;
30096;SDS011;16915;51.466;3.610;2022-10-26T17:29:40;6.55;;;1.00;;
30096;SDS011;16915;51.466;3.610;2022-10-26T17:32:05;3.05;;;1.02;;
30096;SDS011;16915;51.466;3.610;2022-10-26T17:34:31;5.68;;;1.08;;
30096;SDS011;16915;51.466;3.610;2022-10-26T17:36:56;4.10;;;0.85;;
30096;SDS011;16915;51.466;3.610;2022-10-26T17:39:22;5.13;;;1.55;;
30096;SDS011;16915;51.466;3.610;2022-10-26T17:41:47;9.20;;;1.00;;
30096;SDS011;16915;51.466;3.610;2022-10-26T17:44:13;3.42;;;1.08;;
30096;SDS011;16915;51.466;3.610;2022-10-26T17:46:39;5.18;;;1.10;;
30096;SDS011;16915;51.466;3.610;2022-10-26T17:49:04;9.10;;;1.30;;
30096;SDS011;16915;51.466;3.610;2022-10-26T17:51:30;5.07;;;1.10;;
30096;SDS011;16915;51.466;3.610;2022-10-26T17:53:55;6.32;;;1.00;;
30096;SDS011;16915;51.466;3.610;2022-10-26T17:56:23;4.78;;;1.13;;
30096;SDS011;16915;51.466;3.610;2022-10-26T17:58:51;7.30;;;1.17;;
30096;SDS011;16915;51.466;3.610;2022-10-26T18:01:21;10.10;;;1.40;;
30096;SDS011;16915;51.466;3.610;2022-10-26T18:03:46;4.18;;;1.20;;
30096;SDS011;16915;51.466;3.610;2022-10-26T18:06:12;8.98;;;2.35;;
30096;SDS011;16915;51.466;3.610;2022-10-26T18:08:38;5.32;;;1.20;;
30096;SDS011;16915;51.466;3.610;2022-10-26T18:11:05;4.63;;;1.98;;
30096;SDS011;16915;51.466;3.610;2022-10-26T18:13:36;8.10;;;1.55;;
30096;SDS011;16915;51.466;3.610;2022-10-26T18:16:06;6.80;;;1.60;;
30096;SDS011;16915;51.466;3.610;2022-10-26T18:18:32;7.75;;;1.50;;
30096;SDS011;16915;51.466;3.610;2022-10-26T18:20:59;9.00;;;1.92;;
30096;SDS011;16915;51.466;3.610;2022-10-26T18:23:29;9.10;;;1.70;;
30096;SDS011;16915;51.466;3.610;2022-10-26T18:26:00;6.13;;;1.50;;
30096;SDS011;16915;51.466;3.610;2022-10-26T18:28:27;9.20;;;1.73;;
30096;SDS011;16915;51.466;3.610;2022-10-26T18:30:52;7.40;;;3.00;;
30096;SDS011;16915;51.466;3.610;2022-10-26T18:33:18;8.38;;;2.42;;
30096;SDS011;16915;51.466;3.610;2022-10-26T18:35:43;16.15;;;3.67;;
30096;SDS011;16915;51.466;3.610;2022-10-26T18:38:10;11.65;;;2.50;;
30096;SDS011;16915;51.466;3.610;2022-10-26T18:40:36;8.65;;;2.80;;
30096;SDS011;16915;51.466;3.610;2022-10-26T18:43:01;4.25;;;1.85;;
30096;SDS011;16915;51.466;3.610;2022-10-26T18:45:27;4.22;;;1.90;;
30096;SDS011;16915;51.466;3.610;2022-10-26T18:47:57;6.68;;;2.28;;
30096;SDS011;16915;51.466;3.610;2022-10-26T18:50:23;6.80;;;1.50;;
30096;SDS011;16915;51.466;3.610;2022-10-26T18:52:48;6.93;;;1.33;;
30096;SDS011;16915;51.466;3.610;2022-10-26T18:55:15;5.65;;;1.13;;
30096;SDS011;16915;51.466;3.610;2022-10-26T18:57:40;4.32;;;1.50;;
30096;SDS011;16915;51.466;3.610;2022-10-26T19:00:06;6.20;;;1.30;;
30096;SDS011;16915;51.466;3.610;2022-10-26T19:02:32;4.20;;;1.73;;
30096;SDS011;16915;51.466;3.610;2022-10-26T19:04:58;7.10;;;2.63;;
30096;SDS011;16915;51.466;3.610;2022-10-26T19:07:23;3.83;;;2.10;;
30096;SDS011;16915;51.466;3.610;2022-10-26T19:09:49;7.57;;;1.50;;
30096;SDS011;16915;51.466;3.610;2022-10-26T19:12:15;7.80;;;2.53;;
30096;SDS011;16915;51.466;3.610;2022-10-26T19:14:40;8.05;;;2.40;;
30096;SDS011;16915;51.466;3.610;2022-10-26T19:17:06;7.65;;;1.70;;
30096;SDS011;16915;51.466;3.610;2022-10-26T19:19:31;8.50;;;2.22;;
30096;SDS011;16915;51.466;3.610;2022-10-26T19:21:57;17.48;;;3.05;;
30096;SDS011;16915;51.466;3.610;2022-10-26T19:24:24;9.95;;;1.85;;
30096;SDS011;16915;51.466;3.610;2022-10-26T19:26:50;5.35;;;1.38;;
30096;SDS011;16915;51.466;3.610;2022-10-26T19:29:16;7.45;;;1.52;;
30096;SDS011;16915;51.466;3.610;2022-10-26T19:31:46;6.20;;;1.52;;
30096;SDS011;16915;51.466;3.610;2022-10-26T19:34:15;6.22;;;1.50;;
30096;SDS011;16915;51.466;3.610;2022-10-26T19:36:41;10.35;;;1.65;;
30096;SDS011;16915;51.466;3.610;2022-10-26T19:39:08;7.88;;;1.33;;
30096;SDS011;16915;51.466;3.610;2022-10-26T19:41:34;8.07;;;1.80;;